Time;durP1;ratioP1;P1;durP2;ratioP2;P2;SDS_P1;SDS_P2;PMS_P1;PMS_P2;Temp;Humidity;BMP_temperature;BMP_pressure;BME280_temperature;BME280_humidity;BME280_pressure;Samples;Min_cycle;Max_cycle;Signal;HPM_P1;HPM_P2
2023/02/07 00:01:37;;;;;;;7.82;3.15;;;17.00;38.60;;;;;;5115113;28;20220;-70
2023/02/07 00:04:04;;;;;;;8.07;3.42;;;17.00;38.60;;;;;;5115786;28;20668;-70
2023/02/07 00:06:35;;;;;;;8.52;3.17;;;17.00;38.70;;;;;;5116152;28;20213;-70
2023/02/07 00:09:05;;;;;;;11.57;3.72;;;17.00;38.70;;;;;;5115119;28;20802;-70
2023/02/07 00:11:32;;;;;;;9.82;3.25;;;17.00;38.70;;;;;;5115927;28;20265;-71
2023/02/07 00:14:00;;;;;;;9.50;3.40;;;17.00;38.70;;;;;;5115865;27;20216;-70
2023/02/07 00:16:28;;;;;;;9.48;3.28;;;17.00;38.70;;;;;;5072632;22;20782;-71
2023/02/07 00:18:55;;;;;;;9.13;3.45;;;17.00;38.70;;;;;;5035122;28;20200;-70
2023/02/07 00:21:24;;;;;;;7.93;3.15;;;17.00;38.70;;;;;;5035343;28;20220;-70
2023/02/07 00:23:54;;;;;;;8.75;3.25;;;17.00;38.70;;;;;;5034236;28;20678;-71
2023/02/07 00:26:23;;;;;;;9.00;3.22;;;17.00;38.80;;;;;;5035180;28;20212;-71
2023/02/07 00:28:51;;;;;;;9.93;3.30;;;17.00;38.80;;;;;;5034704;28;20192;-70
2023/02/07 00:31:21;;;;;;;9.45;3.38;;;17.00;38.80;;;;;;5034970;28;20224;-70
2023/02/07 00:33:49;;;;;;;10.57;3.33;;;16.90;38.70;;;;;;5034563;28;20573;-71
2023/02/07 00:36:19;;;;;;;12.57;3.53;;;16.90;38.70;;;;;;5017363;28;20219;-69
2023/02/07 00:38:46;;;;;;;11.20;3.42;;;16.90;38.70;;;;;;5015495;28;20188;-68
2023/02/07 00:41:17;;;;;;;7.80;3.70;;;16.90;38.70;;;;;;5034812;28;20294;-71
2023/02/07 00:43:45;;;;;;;8.55;3.22;;;16.90;38.80;;;;;;5034724;28;20242;-69
2023/02/07 00:46:12;;;;;;;8.32;3.28;;;16.90;38.80;;;;;;5034608;28;20646;-70
2023/02/07 00:48:39;;;;;;;8.23;3.42;;;16.90;38.80;;;;;;5034641;28;20243;-71
2023/02/07 00:51:07;;;;;;;7.43;3.60;;;16.90;38.80;;;;;;5034707;28;20248;-70
2023/02/07 00:53:34;;;;;;;8.60;3.47;;;16.90;38.80;;;;;;5033508;28;20748;-70
2023/02/07 00:56:02;;;;;;;7.97;3.40;;;16.90;38.80;;;;;;5034604;28;20227;-70
2023/02/07 00:58:30;;;;;;;8.95;3.35;;;16.90;38.80;;;;;;5034365;28;20558;-70
2023/02/07 01:00:57;;;;;;;7.32;3.60;;;16.90;38.80;;;;;;5034489;28;20223;-70
2023/02/07 01:03:24;;;;;;;6.30;3.13;;;16.90;38.80;;;;;;5034254;28;20195;-70
2023/02/07 01:05:52;;;;;;;6.82;3.55;;;16.90;38.80;;;;;;5034401;28;20577;-70
2023/02/07 01:08:19;;;;;;;8.95;3.70;;;16.90;38.80;;;;;;5033504;28;20238;-70
2023/02/07 01:10:46;;;;;;;9.40;3.53;;;16.90;38.80;;;;;;5034088;28;20254;-70
2023/02/07 01:13:15;;;;;;;8.38;3.92;;;16.90;38.80;;;;;;5033790;28;20212;-70
2023/02/07 01:15:47;;;;;;;8.57;3.10;;;16.80;38.70;;;;;;5033941;28;20722;-71
2023/02/07 01:18:14;;;;;;;7.65;3.50;;;16.80;38.70;;;;;;5033796;28;20201;-70
2023/02/07 01:20:41;;;;;;;11.55;3.67;;;16.80;38.70;;;;;;5034096;28;20212;-70
2023/02/07 01:23:13;;;;;;;9.00;3.00;;;16.80;38.70;;;;;;5033088;28;20192;-71
2023/02/07 01:25:42;;;;;;;9.98;3.38;;;16.80;38.70;;;;;;5034057;28;20244;-71
2023/02/07 01:28:10;;;;;;;8.57;3.20;;;16.80;38.70;;;;;;5033611;28;20193;-71
2023/02/07 01:30:39;;;;;;;8.32;3.20;;;16.80;38.70;;;;;;5033879;28;20221;-71
2023/02/07 01:33:08;;;;;;;8.95;3.53;;;16.80;38.70;;;;;;5033658;28;20220;-71
2023/02/07 01:35:38;;;;;;;9.85;3.40;;;16.80;38.70;;;;;;5033496;28;20690;-71
2023/02/07 01:38:06;;;;;;;7.95;3.20;;;16.80;38.70;;;;;;5032909;28;20188;-70
2023/02/07 01:40:36;;;;;;;10.02;3.20;;;16.80;38.70;;;;;;5033708;28;20668;-71
2023/02/07 01:43:04;;;;;;;9.48;3.47;;;16.80;38.70;;;;;;5033652;28;20283;-71
2023/02/07 01:45:34;;;;;;;10.35;3.65;;;16.70;38.60;;;;;;5033701;28;20220;-70
2023/02/07 01:48:06;;;;;;;11.15;3.58;;;16.80;38.70;;;;;;5033657;28;20286;-71
2023/02/07 01:50:36;;;;;;;8.93;3.30;;;16.80;38.70;;;;;;5033027;28;20448;-70
2023/02/07 01:53:06;;;;;;;7.43;3.10;;;16.80;38.70;;;;;;5032398;28;20227;-71
2023/02/07 01:55:37;;;;;;;8.10;2.95;;;16.80;39.30;;;;;;5033133;28;20212;-70
2023/02/07 01:58:06;;;;;;;7.40;3.25;;;16.80;38.70;;;;;;5033395;28;20203;-71
2023/02/07 02:00:34;;;;;;;9.75;3.47;;;16.70;38.60;;;;;;5015564;28;20868;-70
2023/02/07 02:03:01;;;;;;;6.20;2.97;;;16.70;38.60;;;;;;5033421;28;20197;-70
2023/02/07 02:05:31;;;;;;;7.97;3.35;;;16.80;38.70;;;;;;5033378;28;20311;-70
2023/02/07 02:07:59;;;;;;;11.13;3.20;;;16.70;38.60;;;;;;5032282;28;20647;-71
2023/02/07 02:10:36;;;;;;;6.95;3.00;;;16.70;38.60;;;;;;5033027;28;20270;-70
2023/02/07 02:13:18;;;;;;;7.70;3.03;;;16.70;38.60;;;;;;5033201;28;20216;-71
2023/02/07 02:15:53;;;;;;;8.98;3.13;;;16.70;38.60;;;;;;5032944;28;20228;-70
2023/02/07 02:18:41;;;;;;;9.00;3.10;;;16.70;38.60;;;;;;5032909;28;20697;-70
2023/02/07 02:22:02;;;;;;;7.43;3.38;;;16.70;38.60;;;;;;5033002;28;20223;-71
2023/02/07 02:25:02;;;;;;;6.82;2.95;;;16.70;38.50;;;;;;5007941;28;20200;-71
2023/02/07 02:27:48;;;;;;;7.05;3.05;;;16.70;38.60;;;;;;5030822;28;20270;-70
2023/02/07 02:30:48;;;;;;;10.80;3.20;;;16.70;38.60;;;;;;5032770;28;20189;-70
2023/02/07 02:33:27;;;;;;;9.10;3.38;;;16.70;38.60;;;;;;5032420;28;20637;-71
2023/02/07 02:36:01;;;;;;;8.57;3.08;;;16.70;38.60;;;;;;5032802;28;20411;-70
2023/02/07 02:38:34;;;;;;;8.65;3.10;;;16.70;38.60;;;;;;5032131;28;20188;-70
2023/02/07 02:41:06;;;;;;;9.55;3.28;;;16.60;38.50;;;;;;5032356;28;20725;-71
2023/02/07 02:43:41;;;;;;;6.15;2.55;;;16.70;38.60;;;;;;5032618;28;20301;-70
2023/02/07 02:46:14;;;;;;;7.85;3.20;;;16.60;38.50;;;;;;5032407;28;20251;-70
2023/02/07 02:48:44;;;;;;;7.97;2.80;;;16.60;38.50;;;;;;5029776;28;20617;-70
2023/02/07 02:51:11;;;;;;;9.18;2.97;;;16.60;38.50;;;;;;5032644;28;20274;-70
2023/02/07 02:53:38;;;;;;;7.70;3.03;;;16.60;38.50;;;;;;5031814;28;20220;-70
2023/02/07 02:56:29;;;;;;;9.23;3.70;;;16.60;38.50;;;;;;5032260;28;20698;-70
2023/02/07 02:59:26;;;;;;;7.78;3.10;;;16.60;38.50;;;;;;5032414;28;20565;-71
2023/02/07 03:02:01;;;;;;;7.18;3.30;;;16.60;38.50;;;;;;5031960;28;20744;-70
2023/02/07 03:04:42;;;;;;;7.00;3.30;;;16.60;38.50;;;;;;5032276;28;20564;-70
2023/02/07 03:07:21;;;;;;;9.23;2.92;;;16.60;38.50;;;;;;5031861;28;20235;-70
2023/02/07 03:09:59;;;;;;;6.80;2.80;;;16.60;38.50;;;;;;5032347;28;20216;-70
2023/02/07 03:12:31;;;;;;;11.02;3.08;;;16.60;38.50;;;;;;5032297;28;20224;-71
2023/02/07 03:15:04;;;;;;;8.48;3.40;;;16.60;38.50;;;;;;5031934;28;20216;-69
2023/02/07 03:17:37;;;;;;;6.80;3.08;;;16.60;38.50;;;;;;5032398;28;20224;-71
2023/02/07 03:20:11;;;;;;;5.35;2.90;;;16.60;38.50;;;;;;5032641;28;20198;-71
2023/02/07 03:22:39;;;;;;;9.32;3.05;;;16.60;38.50;;;;;;5031730;28;20533;-70
2023/02/07 03:25:10;;;;;;;6.18;2.88;;;16.60;38.50;;;;;;5031905;28;20200;-71
2023/02/07 03:27:38;;;;;;;8.20;2.75;;;16.60;38.50;;;;;;5032023;28;20709;-71
2023/02/07 03:30:09;;;;;;;6.88;3.20;;;16.60;38.50;;;;;;5031892;28;20195;-70
2023/02/07 03:32:39;;;;;;;7.53;3.10;;;16.60;38.50;;;;;;5032075;28;20212;-71
2023/02/07 03:35:12;;;;;;;7.13;2.90;;;16.60;38.50;;;;;;5031855;28;20658;-70
2023/02/07 03:37:43;;;;;;;6.35;2.92;;;16.60;38.50;;;;;;5014176;28;20235;-71
2023/02/07 03:40:12;;;;;;;6.82;3.00;;;16.60;38.50;;;;;;5032100;28;20189;-70
2023/02/07 03:42:42;;;;;;;8.35;3.08;;;16.50;38.50;;;;;;5031839;28;20717;-70
2023/02/07 03:45:14;;;;;;;6.82;2.72;;;16.50;38.50;;;;;;5031738;28;20192;-71
2023/02/07 03:47:41;;;;;;;7.18;2.90;;;16.50;38.50;;;;;;5031961;28;20189;-71
2023/02/07 03:50:11;;;;;;;7.93;3.25;;;16.50;38.50;;;;;;5031968;28;20597;-71
2023/02/07 03:52:39;;;;;;;7.07;3.05;;;16.50;38.50;;;;;;5031415;28;20219;-71
2023/02/07 03:55:07;;;;;;;8.45;3.10;;;16.50;38.50;;;;;;5032091;28;20224;-71
2023/02/07 03:57:34;;;;;;;7.22;2.50;;;16.50;38.50;;;;;;5032105;28;20224;-71
2023/02/07 04:00:01;;;;;;;6.25;3.03;;;16.50;38.50;;;;;;5031942;28;20192;-71
2023/02/07 04:02:28;;;;;;;5.88;2.83;;;16.50;38.50;;;;;;5031860;28;20744;-71
2023/02/07 04:04:55;;;;;;;10.20;2.97;;;16.50;38.50;;;;;;5032047;28;20203;-71
2023/02/07 04:07:24;;;;;;;8.95;3.10;;;16.50;38.50;;;;;;5031413;28;20223;-71
2023/02/07 04:09:51;;;;;;;8.23;2.97;;;16.50;38.50;;;;;;5031860;28;20184;-70
2023/02/07 04:12:18;;;;;;;7.35;2.85;;;16.50;38.50;;;;;;5031903;28;20217;-71
2023/02/07 04:14:45;;;;;;;6.93;2.70;;;16.50;38.50;;;;;;5034976;28;20212;-70
2023/02/07 04:17:13;;;;;;;10.38;3.30;;;16.50;38.50;;;;;;5035026;28;20301;-71
2023/02/07 04:19:40;;;;;;;7.85;3.38;;;16.50;38.50;;;;;;5035181;28;20667;-71
2023/02/07 04:22:09;;;;;;;8.43;2.63;;;16.50;38.50;;;;;;5034781;28;20220;-70
2023/02/07 04:24:38;;;;;;;8.80;3.03;;;16.50;38.50;;;;;;5035137;28;20193;-71
2023/02/07 04:27:05;;;;;;;7.90;3.38;;;16.50;38.50;;;;;;5035198;28;20282;-71
2023/02/07 04:29:33;;;;;;;6.90;3.05;;;16.50;39.10;;;;;;5034727;28;20185;-70
2023/02/07 04:32:01;;;;;;;6.88;3.38;;;16.50;38.50;;;;;;5029953;28;20224;-70
2023/02/07 04:34:28;;;;;;;8.80;3.35;;;16.50;38.50;;;;;;5034808;28;20212;-71
2023/02/07 04:36:56;;;;;;;7.97;3.28;;;16.50;38.50;;;;;;5034363;28;20219;-70
2023/02/07 04:39:23;;;;;;;8.70;3.45;;;16.50;38.50;;;;;;5035180;28;20563;-70
2023/02/07 04:41:52;;;;;;;7.05;3.22;;;16.50;38.50;;;;;;5034603;28;20220;-70
2023/02/07 04:44:19;;;;;;;7.53;3.00;;;16.50;38.50;;;;;;5034383;28;20236;-70
2023/02/07 04:46:46;;;;;;;7.07;3.38;;;16.50;38.50;;;;;;5034401;28;20706;-70
2023/02/07 04:49:13;;;;;;;8.80;3.22;;;16.40;38.40;;;;;;5034743;28;20250;-68
2023/02/07 04:51:40;;;;;;;7.72;3.25;;;16.40;38.40;;;;;;5034169;28;20224;-68
2023/02/07 04:54:07;;;;;;;10.27;3.53;;;16.40;38.40;;;;;;5034428;28;20278;-70
2023/02/07 04:56:34;;;;;;;6.63;3.13;;;16.40;38.40;;;;;;5034700;28;20223;-71
2023/02/07 04:59:03;;;;;;;8.40;3.40;;;16.40;38.40;;;;;;5034264;28;20243;-70
2023/02/07 05:01:30;;;;;;;8.63;3.28;;;16.40;38.40;;;;;;5034594;28;20266;-70
2023/02/07 05:03:57;;;;;;;10.65;4.03;;;16.40;38.40;;;;;;5034478;28;20193;-70
2023/02/07 05:06:25;;;;;;;8.88;3.10;;;16.40;38.40;;;;;;5033568;28;20221;-70
2023/02/07 05:08:52;;;;;;;8.98;3.75;;;16.40;38.40;;;;;;5034058;28;20551;-70
2023/02/07 05:11:19;;;;;;;7.38;3.60;;;16.40;38.40;;;;;;5034191;28;20220;-71
2023/02/07 05:13:46;;;;;;;9.18;3.75;;;16.40;38.40;;;;;;5035202;28;20289;-70
2023/02/07 05:16:14;;;;;;;7.75;3.35;;;16.40;38.40;;;;;;5033832;28;20721;-70
2023/02/07 05:18:41;;;;;;;10.38;3.88;;;16.40;38.40;;;;;;5034083;28;20196;-70
2023/02/07 05:21:10;;;;;;;9.50;3.00;;;16.40;38.40;;;;;;5033467;28;20232;-70
2023/02/07 05:23:37;;;;;;;7.35;3.58;;;16.40;38.40;;;;;;5033542;28;20207;-70
2023/02/07 05:26:04;;;;;;;11.02;3.42;;;16.40;38.40;;;;;;5033506;28;20216;-71
2023/02/07 05:28:31;;;;;;;8.23;3.38;;;16.40;38.40;;;;;;5034584;28;20196;-70
2023/02/07 05:30:59;;;;;;;10.20;3.65;;;16.40;38.40;;;;;;5033890;28;20221;-71
2023/02/07 05:33:27;;;;;;;7.93;3.50;;;16.40;38.40;;;;;;5033794;28;20192;-70
2023/02/07 05:35:54;;;;;;;10.05;3.13;;;16.40;38.40;;;;;;5033469;28;20251;-70
2023/02/07 05:38:21;;;;;;;7.65;3.78;;;16.40;38.40;;;;;;5032911;28;20188;-70
2023/02/07 05:40:49;;;;;;;7.15;3.05;;;16.40;38.40;;;;;;5033599;28;20184;-70
2023/02/07 05:43:16;;;;;;;7.82;3.50;;;16.40;38.40;;;;;;5033385;28;20239;-70
2023/02/07 05:45:44;;;;;;;10.98;3.67;;;16.40;38.40;;;;;;5033360;28;20566;-70
2023/02/07 05:48:11;;;;;;;7.88;3.03;;;16.40;38.40;;;;;;5033344;28;20568;-70
2023/02/07 05:50:40;;;;;;;8.52;3.05;;;16.40;38.40;;;;;;5033474;28;20189;-70
2023/02/07 05:53:08;;;;;;;9.52;3.20;;;16.40;38.40;;;;;;5032597;28;20885;-70
2023/02/07 05:55:35;;;;;;;7.65;3.03;;;16.40;38.40;;;;;;5033590;28;20221;-71
2023/02/07 05:58:02;;;;;;;5.03;2.92;;;16.40;38.40;;;;;;5033214;28;20193;-70
2023/02/07 06:00:30;;;;;;;9.27;3.45;;;16.50;38.50;;;;;;5032990;28;20230;-70
2023/02/07 06:02:57;;;;;;;7.70;3.35;;;16.50;38.50;;;;;;5033819;28;20224;-70
2023/02/07 06:05:24;;;;;;;8.48;3.30;;;16.50;38.50;;;;;;5032925;28;20700;-69
2023/02/07 06:07:52;;;;;;;5.20;2.80;;;16.50;38.50;;;;;;5032790;28;20705;-71
2023/02/07 06:10:20;;;;;;;7.03;3.30;;;16.60;38.50;;;;;;5033133;28;20200;-70
2023/02/07 06:12:47;;;;;;;5.60;2.72;;;16.60;38.60;;;;;;5033194;28;20702;-71
2023/02/07 06:15:14;;;;;;;6.75;2.75;;;16.60;38.50;;;;;;5032848;28;20220;-70
2023/02/07 06:17:41;;;;;;;7.47;3.10;;;16.70;38.70;;;;;;5033014;28;20216;-71
2023/02/07 06:20:09;;;;;;;12.63;3.30;;;16.60;38.60;;;;;;5033293;28;20196;-71
2023/02/07 06:22:36;;;;;;;5.70;2.75;;;16.70;38.70;;;;;;5032395;28;20220;-70
2023/02/07 06:25:09;;;;;;;5.72;2.78;;;16.70;38.70;;;;;;5032709;28;20193;-70
2023/02/07 06:27:36;;;;;;;6.80;2.83;;;16.70;38.80;;;;;;5033062;28;20219;-71
2023/02/07 06:30:04;;;;;;;6.70;2.67;;;16.70;38.70;;;;;;5032816;28;20184;-70
2023/02/07 06:32:31;;;;;;;5.13;2.35;;;16.80;38.90;;;;;;5032690;28;20216;-70
2023/02/07 06:34:58;;;;;;;6.20;2.72;;;16.80;38.90;;;;;;5032711;28;20223;-70
2023/02/07 06:37:25;;;;;;;7.53;2.47;;;16.80;38.80;;;;;;5031940;28;20741;-70
2023/02/07 06:39:53;;;;;;;4.68;2.65;;;16.80;38.90;;;;;;5032804;28;20189;-70
2023/02/07 06:42:21;;;;;;;5.95;2.92;;;16.90;39.00;;;;;;5032659;28;20224;-70
2023/02/07 06:44:49;;;;;;;6.43;2.80;;;16.90;39.00;;;;;;5032828;28;20192;-70
2023/02/07 06:47:18;;;;;;;7.68;2.88;;;16.90;39.00;;;;;;5032273;28;20217;-70
2023/02/07 06:49:45;;;;;;;6.38;2.70;;;16.90;39.00;;;;;;5032272;28;20283;-71
2023/02/07 06:52:12;;;;;;;7.00;2.50;;;16.90;39.00;;;;;;5031702;28;20223;-71
2023/02/07 06:54:39;;;;;;;4.50;2.30;;;17.00;39.00;;;;;;5032610;28;20220;-70
2023/02/07 06:57:07;;;;;;;8.52;2.72;;;17.00;39.00;;;;;;5032266;28;20728;-70
2023/02/07 06:59:36;;;;;;;7.53;2.83;;;17.00;39.00;;;;;;5032910;28;20654;-71
2023/02/07 07:02:03;;;;;;;5.68;2.70;;;17.00;39.00;;;;;;5032405;28;20220;-70
2023/02/07 07:04:31;;;;;;;5.85;2.50;;;17.00;39.00;;;;;;5032567;28;20188;-71
2023/02/07 07:06:58;;;;;;;5.70;2.55;;;17.00;39.00;;;;;;5031929;28;20219;-70
2023/02/07 07:09:25;;;;;;;5.78;2.40;;;17.00;39.00;;;;;;5032012;28;20623;-70
2023/02/07 07:11:53;;;;;;;5.65;2.40;;;17.10;39.00;;;;;;5032080;28;20274;-70
2023/02/07 07:14:20;;;;;;;6.00;2.40;;;17.10;39.00;;;;;;5032257;28;20610;-70
2023/02/07 07:16:48;;;;;;;4.95;2.40;;;17.10;39.00;;;;;;5031836;28;20298;-71
2023/02/07 07:19:17;;;;;;;5.13;2.35;;;17.10;39.00;;;;;;5032208;28;20671;-70
2023/02/07 07:21:44;;;;;;;7.15;2.60;;;17.10;39.00;;;;;;5031365;28;20307;-70
2023/02/07 07:24:11;;;;;;;3.80;2.20;;;17.10;39.00;;;;;;5032238;28;20192;-70
2023/02/07 07:26:38;;;;;;;4.75;2.35;;;17.10;39.00;;;;;;5032287;28;20227;-70
2023/02/07 07:29:07;;;;;;;4.63;2.30;;;17.20;39.10;;;;;;5032087;28;20204;-71
2023/02/07 07:31:34;;;;;;;4.55;2.20;;;17.10;39.00;;;;;;5032138;28;20227;-71
2023/02/07 07:34:03;;;;;;;5.28;2.05;;;17.20;39.00;;;;;;5031672;28;20200;-70
2023/02/07 07:36:30;;;;;;;4.22;2.20;;;17.20;39.00;;;;;;5031564;28;20223;-71
2023/02/07 07:38:58;;;;;;;4.55;2.58;;;17.20;39.00;;;;;;5032390;28;20192;-71
2023/02/07 07:41:25;;;;;;;5.72;2.17;;;17.20;39.00;;;;;;5031762;28;20231;-70
2023/02/07 07:43:54;;;;;;;4.15;2.33;;;17.20;39.00;;;;;;5031828;28;20185;-71
2023/02/07 07:46:22;;;;;;;4.45;1.92;;;17.30;39.10;;;;;;5031326;28;20252;-71
2023/02/07 07:48:49;;;;;;;3.60;2.10;;;17.30;39.10;;;;;;5033180;28;20203;-71
2023/02/07 07:51:17;;;;;;;5.22;2.40;;;17.30;39.70;;;;;;5034266;28;20212;-70
2023/02/07 07:53:44;;;;;;;4.00;1.95;;;17.40;39.20;;;;;;5034545;28;20197;-71
2023/02/07 07:56:12;;;;;;;6.65;2.38;;;17.40;39.20;;;;;;5033796;28;20238;-69
2023/02/07 07:58:39;;;;;;;5.70;2.60;;;17.40;39.20;;;;;;5029768;28;20742;-71
2023/02/07 08:01:07;;;;;;;12.23;2.50;;;17.40;39.20;;;;;;5030948;28;20235;-71
2023/02/07 08:03:35;;;;;;;4.28;2.38;;;17.50;39.30;;;;;;5030793;28;20741;-71
2023/02/07 08:06:02;;;;;;;5.45;2.20;;;17.50;39.30;;;;;;5021410;28;20200;-70
2023/02/07 08:08:30;;;;;;;5.00;2.30;;;17.50;39.30;;;;;;5020043;28;21005;-70
2023/02/07 08:11:01;;;;;;;3.83;1.80;;;17.60;39.30;;;;;;5027487;28;20211;-70
2023/02/07 08:13:29;;;;;;;6.75;2.20;;;17.60;39.30;;;;;;5027504;28;20208;-71
2023/02/07 08:15:56;;;;;;;5.47;2.10;;;17.60;39.20;;;;;;5027355;28;20595;-71
2023/02/07 08:18:23;;;;;;;5.57;2.20;;;17.60;39.10;;;;;;5026886;28;20212;-72
2023/02/07 08:20:50;;;;;;;6.30;2.10;;;17.60;39.10;;;;;;5026465;28;20208;-72
2023/02/07 08:23:17;;;;;;;5.30;2.65;;;17.70;39.10;;;;;;5028131;28;20712;-69
2023/02/07 08:25:49;;;;;;;7.20;2.47;;;17.70;39.20;;;;;;5027761;28;20196;-70
2023/02/07 08:28:16;;;;;;;11.95;2.30;;;17.80;39.20;;;;;;5028228;28;20197;-69
2023/02/07 08:30:46;;;;;;;12.63;2.58;;;17.80;39.40;;;;;;5028580;28;20216;-69
2023/02/07 08:33:13;;;;;;;5.50;2.10;;;17.80;39.40;;;;;;5028839;28;20220;-71
2023/02/07 08:35:41;;;;;;;5.32;2.13;;;17.80;39.30;;;;;;5028104;28;20232;-69
2023/02/07 08:38:08;;;;;;;5.60;2.40;;;17.90;39.30;;;;;;5027183;28;20220;-72
2023/02/07 08:40:36;;;;;;;6.72;2.28;;;17.90;39.30;;;;;;5025313;28;20234;-71
2023/02/07 08:43:11;;;;;;;7.35;2.28;;;17.90;39.30;;;;;;5020316;28;20274;-71
2023/02/07 08:45:38;;;;;;;7.60;2.38;;;17.90;39.40;;;;;;5023646;28;20208;-69
2023/02/07 08:48:06;;;;;;;5.18;2.15;;;17.90;39.50;;;;;;5027729;28;20224;-70
2023/02/07 08:50:33;;;;;;;7.45;2.65;;;17.90;39.60;;;;;;5027923;28;20204;-69
2023/02/07 08:53:00;;;;;;;4.93;2.30;;;17.90;39.60;;;;;;5027882;28;20654;-69
2023/02/07 08:55:27;;;;;;;13.30;2.33;;;18.00;39.70;;;;;;5028016;28;20678;-69
2023/02/07 08:57:54;;;;;;;4.90;2.08;;;17.90;39.60;;;;;;5028259;28;20605;-69
2023/02/07 09:00:23;;;;;;;4.72;2.17;;;18.00;39.70;;;;;;5026715;28;20201;-70
2023/02/07 09:02:51;;;;;;;5.88;1.98;;;18.00;39.60;;;;;;5028447;28;20223;-69
2023/02/07 09:05:18;;;;;;;4.28;1.98;;;18.00;39.60;;;;;;5027984;28;20235;-69
2023/02/07 09:07:45;;;;;;;4.30;1.98;;;18.00;39.60;;;;;;5028805;28;20726;-69
2023/02/07 09:10:14;;;;;;;4.25;2.20;;;18.00;39.40;;;;;;5028822;28;20523;-69
2023/02/07 09:12:41;;;;;;;6.35;2.60;;;18.00;39.40;;;;;;5028541;28;20274;-69
2023/02/07 09:15:09;;;;;;;4.18;2.20;;;18.00;39.30;;;;;;5027746;28;20231;-70
2023/02/07 09:17:37;;;;;;;5.05;2.25;;;18.00;39.30;;;;;;5029250;28;20725;-69
2023/02/07 09:20:05;;;;;;;6.55;2.20;;;18.00;39.30;;;;;;5028480;28;20211;-70
2023/02/07 09:23:16;;;;;;;3.63;2.17;;;18.00;39.30;;;;;;5028379;28;20224;-70
2023/02/07 09:25:20;;;;;;;5.38;2.42;;;18.00;39.20;;;;;;5028027;28;20253;-70
2023/02/07 09:27:47;;;;;;;4.07;2.30;;;18.00;39.20;;;;;;5028677;28;20232;-69
2023/02/07 09:30:15;;;;;;;6.28;2.35;;;18.00;39.20;;;;;;5028513;28;20715;-69
2023/02/07 09:32:44;;;;;;;4.50;2.38;;;18.00;39.20;;;;;;5010325;28;20678;-69
2023/02/07 09:35:11;;;;;;;9.77;2.08;;;18.00;39.10;;;;;;5027329;28;20713;-70
2023/02/07 09:37:39;;;;;;;6.07;2.60;;;18.00;39.20;;;;;;5028562;28;20303;-70
2023/02/07 09:40:07;;;;;;;6.93;2.65;;;18.00;39.10;;;;;;5028411;28;20196;-70
2023/02/07 09:42:41;;;;;;;5.03;2.67;;;18.00;39.10;;;;;;5028375;28;20224;-69
2023/02/07 09:45:12;;;;;;;8.25;2.53;;;18.00;39.10;;;;;;5027648;28;20982;-70
2023/02/07 09:47:44;;;;;;;6.70;2.45;;;18.00;39.10;;;;;;5027102;28;20311;-69
2023/02/07 09:50:15;;;;;;;5.63;2.55;;;18.00;39.10;;;;;;5027367;28;20204;-69
2023/02/07 09:52:46;;;;;;;7.57;2.58;;;18.10;39.20;;;;;;5026595;28;20228;-69
2023/02/07 09:55:20;;;;;;;6.13;2.33;;;18.10;39.30;;;;;;5027583;28;20274;-69
2023/02/07 09:57:51;;;;;;;4.25;2.40;;;18.10;39.30;;;;;;5027669;28;20232;-69
2023/02/07 10:00:23;;;;;;;5.72;2.50;;;18.10;39.30;;;;;;5028526;28;20196;-69
2023/02/07 10:02:58;;;;;;;10.10;2.70;;;18.10;39.20;;;;;;5027518;28;20232;-69
2023/02/07 10:05:34;;;;;;;6.55;2.72;;;18.10;39.30;;;;;;5026916;28;20211;-69
2023/02/07 10:08:04;;;;;;;7.45;2.50;;;18.10;39.20;;;;;;5028003;28;20219;-69
2023/02/07 10:10:39;;;;;;;6.07;2.63;;;18.10;39.20;;;;;;5027365;28;20279;-69
2023/02/07 10:13:21;;;;;;;9.65;2.83;;;18.10;39.30;;;;;;5026933;28;20594;-69
2023/02/07 10:16:05;;;;;;;7.85;2.80;;;18.10;39.20;;;;;;5028225;28;20251;-69
2023/02/07 10:18:44;;;;;;;7.18;2.38;;;18.10;39.20;;;;;;5029002;28;20250;-70
2023/02/07 10:21:20;;;;;;;5.60;2.67;;;18.10;39.20;;;;;;5028409;28;20238;-70
2023/02/07 10:24:21;;;;;;;4.53;2.58;;;18.20;39.30;;;;;;5025923;28;20242;-69
2023/02/07 10:26:53;;;;;;;5.97;2.70;;;18.20;39.30;;;;;;5018162;28;20228;-70
2023/02/07 10:29:48;;;;;;;6.47;2.78;;;18.20;39.40;;;;;;5012218;28;20659;-70
2023/02/07 10:32:23;;;;;;;6.10;2.13;;;18.20;39.30;;;;;;5014604;28;20310;-70
2023/02/07 10:34:56;;;;;;;4.25;2.50;;;18.30;39.40;;;;;;5012938;28;20758;-69
2023/02/07 10:37:25;;;;;;;5.10;2.65;;;18.30;39.30;;;;;;5021780;28;20228;-70
2023/02/07 10:40:01;;;;;;;5.50;2.80;;;18.30;39.20;;;;;;5016985;28;20211;-69
2023/02/07 10:42:30;;;;;;;3.83;2.63;;;18.30;39.20;;;;;;5005747;28;20783;-70
2023/02/07 10:44:57;;;;;;;6.10;2.92;;;18.30;39.50;;;;;;5027940;28;20605;-70
2023/02/07 10:47:25;;;;;;;6.93;2.28;;;18.30;39.10;;;;;;5028113;28;20224;-71
2023/02/07 10:49:56;;;;;;;13.57;3.47;;;18.30;39.10;;;;;;5028277;28;20200;-72
2023/02/07 10:52:29;;;;;;;10.32;2.67;;;18.40;39.10;;;;;;5028313;28;20231;-73
2023/02/07 10:54:58;;;;;;;8.02;2.70;;;18.40;39.10;;;;;;5028059;28;20204;-73
2023/02/07 10:57:27;;;;;;;7.38;2.90;;;18.40;39.10;;;;;;5025598;28;20598;-72
2023/02/07 11:00:00;;;;;;;5.65;2.30;;;18.40;39.10;;;;;;5028131;28;20196;-74
2023/02/07 11:02:43;;;;;;;13.88;2.92;;;18.40;39.00;;;;;;5020334;28;20228;-74
2023/02/07 11:05:58;;;;;;;5.30;2.63;;;18.40;39.00;;;;;;5023532;28;20250;-71
2023/02/07 11:08:29;;;;;;;6.30;2.78;;;18.40;38.90;;;;;;4940059;29;20633;-75
2023/02/07 11:10:58;;;;;;;8.55;3.08;;;18.40;39.00;;;;;;4947178;28;20557;-75
2023/02/07 11:13:27;;;;;;;6.65;2.30;;;18.40;38.90;;;;;;4946495;29;20223;-75
2023/02/07 11:15:58;;;;;;;7.68;2.70;;;18.40;38.90;;;;;;4947269;29;20309;-75
2023/02/07 11:18:36;;;;;;;5.88;2.60;;;18.40;38.90;;;;;;4946909;29;20387;-76
2023/02/07 11:21:07;;;;;;;8.50;3.05;;;18.50;38.90;;;;;;4947094;29;20282;-74
2023/02/07 11:23:37;;;;;;;6.68;3.33;;;18.40;38.70;;;;;;4949289;28;20223;-74
2023/02/07 11:26:05;;;;;;;7.50;3.08;;;18.40;38.60;;;;;;4950954;29;20207;-74
2023/02/07 11:28:33;;;;;;;7.88;2.60;;;18.50;38.70;;;;;;4951180;29;20235;-75
2023/02/07 11:31:03;;;;;;;6.03;2.97;;;18.40;38.50;;;;;;4950867;29;20234;-75
2023/02/07 11:33:33;;;;;;;8.43;2.80;;;18.40;38.50;;;;;;4950746;29;20258;-75
2023/02/07 11:36:13;;;;;;;6.18;2.78;;;18.40;38.40;;;;;;4951350;29;20231;-75
2023/02/07 11:38:49;;;;;;;8.32;2.88;;;18.40;38.40;;;;;;4969661;28;20220;-75
2023/02/07 11:41:20;;;;;;;6.32;2.90;;;18.40;38.40;;;;;;5009132;28;20201;-75
2023/02/07 11:44:00;;;;;;;4.47;2.58;;;18.40;38.40;;;;;;5011072;28;20227;-75
2023/02/07 11:46:36;;;;;;;3.97;2.67;;;18.40;38.30;;;;;;5010014;28;20205;-75
2023/02/07 11:49:08;;;;;;;5.72;2.83;;;18.40;38.30;;;;;;5007135;28;20235;-75
2023/02/07 11:51:39;;;;;;;4.45;2.42;;;18.40;38.30;;;;;;5011560;28;20198;-75
2023/02/07 11:54:08;;;;;;;7.10;2.30;;;18.40;38.20;;;;;;5010350;28;20181;-75
2023/02/07 11:56:40;;;;;;;9.35;2.80;;;18.40;38.20;;;;;;5011760;28;20229;-75
2023/02/07 11:59:15;;;;;;;5.35;2.75;;;18.40;38.20;;;;;;5011704;28;20336;-75
2023/02/07 12:01:45;;;;;;;7.03;2.72;;;18.40;38.20;;;;;;5011222;28;20189;-74
2023/02/07 12:04:18;;;;;;;6.22;3.03;;;18.40;38.10;;;;;;5011009;28;20667;-75
2023/02/07 12:06:48;;;;;;;5.97;2.70;;;18.40;38.10;;;;;;5011651;28;20198;-75
2023/02/07 12:09:33;;;;;;;7.13;3.08;;;18.40;38.20;;;;;;5011648;28;20244;-75
2023/02/07 12:12:05;;;;;;;5.32;2.70;;;18.40;38.10;;;;;;5009120;28;20193;-75
2023/02/07 12:14:39;;;;;;;6.65;2.85;;;18.40;38.10;;;;;;5010890;28;20200;-76
2023/02/07 12:17:13;;;;;;;8.05;2.80;;;18.40;38.10;;;;;;5033365;28;20356;-75
2023/02/07 12:19:55;;;;;;;5.57;2.83;;;18.40;38.00;;;;;;5030817;28;20200;-75
2023/02/07 12:22:28;;;;;;;5.97;2.60;;;18.40;38.00;;;;;;4979979;28;20224;-75
2023/02/07 12:25:04;;;;;;;4.05;2.63;;;18.40;38.00;;;;;;5031031;28;20247;-75
2023/02/07 12:27:37;;;;;;;5.80;3.03;;;18.40;37.90;;;;;;5030906;28;20712;-75
2023/02/07 12:30:13;;;;;;;6.70;2.92;;;18.40;37.90;;;;;;5030693;28;20727;-74
2023/02/07 12:32:49;;;;;;;9.50;3.22;;;18.40;37.80;;;;;;5031050;28;20274;-75
2023/02/07 12:35:29;;;;;;;5.85;2.55;;;18.40;37.80;;;;;;5030685;28;20623;-74
2023/02/07 12:38:05;;;;;;;6.03;2.60;;;18.40;37.70;;;;;;4994965;28;20231;-75
2023/02/07 12:40:44;;;;;;;5.03;2.65;;;18.40;37.70;;;;;;4994978;28;20704;-74
2023/02/07 12:43:20;;;;;;;5.22;2.78;;;18.40;37.70;;;;;;5030385;28;20616;-75
2023/02/07 12:46:04;;;;;;;5.32;2.67;;;18.40;37.70;;;;;;5030174;28;20976;-75
2023/02/07 12:48:55;;;;;;;5.03;2.85;;;18.40;37.70;;;;;;5029798;28;20700;-76
2023/02/07 12:51:33;;;;;;;4.38;2.53;;;18.40;37.80;;;;;;5030070;28;20192;-75
2023/02/07 12:54:17;;;;;;;6.82;2.80;;;18.40;37.60;;;;;;5029866;28;20640;-76
2023/02/07 12:56:53;;;;;;;5.10;2.50;;;18.40;37.50;;;;;;5012125;28;20223;-75
2023/02/07 12:59:33;;;;;;;4.63;2.53;;;18.40;37.60;;;;;;5030497;28;20250;-75
2023/02/07 13:02:19;;;;;;;6.43;2.97;;;18.40;37.50;;;;;;5013562;28;20588;-76
2023/02/07 13:05:11;;;;;;;5.65;2.65;;;18.50;37.40;;;;;;5013369;28;20197;-74